Time;durP1;ratioP1;P1;durP2;ratioP2;P2;SDS_P1;SDS_P2;PMS_P1;PMS_P2;Temp;Humidity;BMP_temperature;BMP_pressure;BME280_temperature;BME280_humidity;BME280_pressure;Samples;Min_cycle;Max_cycle;Signal;HPM_P1;HPM_P2
2022/04/08 00:01:17;;;;;;;;;;;7.90;99.90;;;;;;4995193;28;20399;-67
2022/04/08 00:03:44;;;;;;;;;;;8.00;99.90;;;;;;4995176;28;19910;-66
2022/04/08 00:06:10;;;;;;;;;;;8.00;99.90;;;;;;4995528;28;19921;-66
2022/04/08 00:08:36;;;;;;;;;;;8.00;99.90;;;;;;4994960;28;20298;-65
2022/04/08 00:11:01;;;;;;;;;;;8.00;99.90;;;;;;4977648;28;19921;-66
2022/04/08 00:13:26;;;;;;;;;;;8.10;99.90;;;;;;4995215;28;19910;-66
2022/04/08 00:15:52;;;;;;;;;;;7.80;99.90;;;;;;4995322;28;20029;-66
2022/04/08 00:18:19;;;;;;;;;;;7.80;99.90;;;;;;4994867;28;20375;-67
2022/04/08 00:20:44;;;;;;;;;;;7.90;99.90;;;;;;4994765;28;19916;-66
2022/04/08 00:23:09;;;;;;;;;;;7.90;99.90;;;;;;4994919;28;20418;-66
2022/04/08 00:25:35;;;;;;;;;;;7.80;99.90;;;;;;4994611;28;19964;-66
2022/04/08 00:28:01;;;;;;;;;;;7.60;99.90;;;;;;4977237;28;19964;-66
2022/04/08 00:30:27;;;;;;;;;;;7.50;99.90;;;;;;4994531;28;19910;-66
2022/04/08 00:32:52;;;;;;;;;;;7.70;99.90;;;;;;4994781;28;19924;-66
2022/04/08 00:35:18;;;;;;;;;;;7.80;99.90;;;;;;4976940;28;20410;-66
2022/04/08 00:37:43;;;;;;;;;;;7.60;99.90;;;;;;4993872;28;20437;-66
2022/04/08 00:40:10;;;;;;;;;;;7.50;99.90;;;;;;4994244;28;20432;-66
2022/04/08 00:42:36;;;;;;;;;;;7.50;99.90;;;;;;4994615;28;19956;-67
2022/04/08 00:45:02;;;;;;;;;;;7.50;99.90;;;;;;4994516;28;19918;-67
2022/04/08 00:47:28;;;;;;;;;;;7.50;99.90;;;;;;4994223;28;19916;-67
2022/04/08 00:49:54;;;;;;;;;;;7.50;99.90;;;;;;4993880;28;19910;-67
2022/04/08 00:52:19;;;;;;;;;;;7.70;99.90;;;;;;4994474;28;19957;-67
2022/04/08 00:54:47;;;;;;;;;;;7.90;99.90;;;;;;4994357;28;19913;-66
2022/04/08 00:57:13;;;;;;;;;;;7.90;99.90;;;;;;4993923;28;19964;-67
2022/04/08 00:59:38;;;;;;;;;;;7.80;99.90;;;;;;4994258;28;19910;-66
2022/04/08 01:02:04;;;;;;;;;;;7.80;99.90;;;;;;4994100;28;19910;-67
2022/04/08 01:04:29;;;;;;;;;;;7.70;99.90;;;;;;4994410;28;20338;-66
2022/04/08 01:06:55;;;;;;;;;;;7.80;99.90;;;;;;4994114;28;20389;-67
2022/04/08 01:09:21;;;;;;;;;;;7.90;99.90;;;;;;4993062;28;20438;-67
2022/04/08 01:11:47;;;;;;;;;;;7.90;99.90;;;;;;4994620;28;19917;-66
2022/04/08 01:14:13;;;;;;;;;;;7.70;99.90;;;;;;4994175;28;19921;-66
2022/04/08 01:16:39;;;;;;;;;;;7.60;99.90;;;;;;4994175;28;20299;-67
2022/04/08 01:19:05;;;;;;;;;;;7.60;99.90;;;;;;4993441;28;19917;-67
2022/04/08 01:21:34;;;;;;;;;;;7.40;99.90;;;;;;4976118;28;19910;-66
2022/04/08 01:24:00;;;;;;;;;;;7.60;99.90;;;;;;4993678;28;19917;-67
2022/04/08 01:26:26;;;;;;;;;;;7.50;99.90;;;;;;4993760;28;19910;-67
2022/04/08 01:28:53;;;;;;;;;;;7.20;99.90;;;;;;4993301;28;19924;-67
2022/04/08 01:31:19;;;;;;;;;;;7.30;99.90;;;;;;4993384;28;19910;-66
2022/04/08 01:33:44;;;;;;;;;;;7.30;99.90;;;;;;4993225;28;19916;-66
2022/04/08 01:36:10;;;;;;;;;;;7.20;99.90;;;;;;4993257;28;19909;-67
2022/04/08 01:38:36;;;;;;;;;;;7.10;99.90;;;;;;4993376;28;19918;-66
2022/04/08 01:41:01;;;;;;;;;;;7.00;99.90;;;;;;4992966;28;19917;-67
2022/04/08 01:43:27;;;;;;;;;;;7.00;99.90;;;;;;4993305;28;19916;-67
2022/04/08 01:45:52;;;;;;;;;;;7.00;99.90;;;;;;4993139;28;19932;-67
2022/04/08 01:48:17;;;;;;;;;;;7.10;99.90;;;;;;4993280;28;19913;-67
2022/04/08 01:50:43;;;;;;;;;;;7.30;99.90;;;;;;4992925;28;19914;-67
2022/04/08 01:53:08;;;;;;;;;;;7.30;99.90;;;;;;4993257;28;19914;-68
2022/04/08 01:55:34;;;;;;;;;;;7.20;99.90;;;;;;4993204;28;19910;-67
2022/04/08 01:57:59;;;;;;;;;;;7.30;99.90;;;;;;4993050;28;20264;-67
2022/04/08 02:00:25;;;;;;;;;;;7.30;99.90;;;;;;4975376;28;20375;-68
2022/04/08 02:02:50;;;;;;;;;;;7.30;99.90;;;;;;4993069;28;19910;-68
2022/04/08 02:05:16;;;;;;;;;;;7.40;99.90;;;;;;4993041;28;19909;-67
2022/04/08 02:07:41;;;;;;;;;;;7.40;99.90;;;;;;4992707;28;19917;-68
2022/04/08 02:10:07;;;;;;;;;;;7.30;99.90;;;;;;4992936;28;19910;-67
2022/04/08 02:12:32;;;;;;;;;;;7.40;99.90;;;;;;4993101;28;19953;-67
2022/04/08 02:14:58;;;;;;;;;;;7.40;99.90;;;;;;4992784;28;20319;-66
2022/04/08 02:17:28;;;;;;;;;;;7.40;99.90;;;;;;4993013;28;20338;-66
2022/04/08 02:19:54;;;;;;;;;;;7.50;99.90;;;;;;4992282;28;19909;-67
2022/04/08 02:22:20;;;;;;;;;;;7.50;99.90;;;;;;4993096;28;20386;-65
2022/04/08 02:24:46;;;;;;;;;;;7.50;99.90;;;;;;4993229;28;19945;-65
2022/04/08 02:27:12;;;;;;;;;;;7.50;99.90;;;;;;4975386;28;19940;-66
2022/04/08 02:29:37;;;;;;;;;;;7.60;99.90;;;;;;4992498;28;19917;-66
2022/04/08 02:32:04;;;;;;;;;;;7.80;99.90;;;;;;4992693;28;19910;-65
2022/04/08 02:34:29;;;;;;;;;;;7.70;99.90;;;;;;4992931;28;19912;-67
2022/04/08 02:36:55;;;;;;;;;;;7.80;99.90;;;;;;4992541;28;19917;-65
2022/04/08 02:39:20;;;;;;;;;;;7.70;99.90;;;;;;5025940;22;19936;-69
2022/04/08 02:41:46;;;;;;;;;;;7.70;99.90;;;;;;5028733;28;19996;-68
2022/04/08 02:44:11;;;;;;;;;;;7.60;99.90;;;;;;5031421;28;19912;-69
2022/04/08 02:46:36;;;;;;;;;;;7.60;99.90;;;;;;5031643;28;19916;-68
2022/04/08 02:49:02;;;;;;;;;;;7.70;99.90;;;;;;5029081;28;19917;-69
2022/04/08 02:51:30;;;;;;;;;;;7.60;99.90;;;;;;5011661;28;20004;-69
2022/04/08 02:53:56;;;;;;;;;;;7.70;99.90;;;;;;5012130;28;19952;-69
2022/04/08 02:56:21;;;;;;;;;;;7.70;99.90;;;;;;5011916;28;19917;-68
2022/04/08 02:58:48;;;;;;;;;;;7.60;99.90;;;;;;5014593;28;20360;-69
2022/04/08 03:01:15;;;;;;;;;;;7.60;99.90;;;;;;5011628;28;19939;-69
2022/04/08 03:03:40;;;;;;;;;;;7.60;99.90;;;;;;5012075;28;19933;-69
2022/04/08 03:06:06;;;;;;;;;;;7.60;99.90;;;;;;5012085;28;19917;-69
2022/04/08 03:08:32;;;;;;;;;;;7.60;99.90;;;;;;5012173;28;20007;-69
2022/04/08 03:10:57;;;;;;;;;;;7.50;99.90;;;;;;5011741;28;19917;-69
2022/04/08 03:13:23;;;;;;;;;;;7.60;99.90;;;;;;5012144;28;19910;-69
2022/04/08 03:15:49;;;;;;;;;;;7.60;99.90;;;;;;5012046;28;19992;-69
2022/04/08 03:18:14;;;;;;;;;;;7.70;99.90;;;;;;5011835;28;19949;-68
2022/04/08 03:20:40;;;;;;;;;;;7.70;99.90;;;;;;5011145;28;19913;-69
2022/04/08 03:23:05;;;;;;;;;;;7.80;99.90;;;;;;5012107;28;20008;-69
2022/04/08 03:25:31;;;;;;;;;;;7.90;99.90;;;;;;5011694;28;19920;-68
2022/04/08 03:27:56;;;;;;;;;;;7.90;99.90;;;;;;5011667;28;19914;-68
2022/04/08 03:30:22;;;;;;;;;;;7.90;99.90;;;;;;5011341;28;19996;-69
2022/04/08 03:32:47;;;;;;;;;;;7.90;99.90;;;;;;5013928;28;20035;-69
2022/04/08 03:35:13;;;;;;;;;;;7.90;99.90;;;;;;5014661;28;19924;-69
2022/04/08 03:37:39;;;;;;;;;;;7.80;99.90;;;;;;5015180;28;20290;-69
2022/04/08 03:40:04;;;;;;;;;;;7.90;99.90;;;;;;5014841;28;19940;-70
2022/04/08 03:42:30;;;;;;;;;;;7.90;99.90;;;;;;5014845;28;20367;-69
2022/04/08 03:44:55;;;;;;;;;;;7.80;99.90;;;;;;5015251;28;19909;-70
2022/04/08 03:47:21;;;;;;;;;;;7.80;99.90;;;;;;5015117;28;19960;-69
2022/04/08 03:49:47;;;;;;;;;;;7.80;99.90;;;;;;5014785;28;19913;-69
2022/04/08 03:52:12;;;;;;;;;;;7.70;99.90;;;;;;5014913;28;20383;-70
2022/04/08 03:54:38;;;;;;;;;;;7.70;99.90;;;;;;5014845;28;20000;-69
2022/04/08 03:57:04;;;;;;;;;;;7.70;99.90;;;;;;5014965;28;19916;-69
2022/04/08 03:59:29;;;;;;;;;;;7.60;99.90;;;;;;5014685;28;19964;-69
2022/04/08 04:01:55;;;;;;;;;;;7.70;99.90;;;;;;5014742;28;19929;-69
2022/04/08 04:04:20;;;;;;;;;;;7.70;99.90;;;;;;5014591;28;19920;-69
2022/04/08 04:06:45;;;;;;;;;;;7.50;99.90;;;;;;5014519;28;19927;-68
2022/04/08 04:09:11;;;;;;;;;;;7.60;99.90;;;;;;5014040;28;19913;-69
2022/04/08 04:11:36;;;;;;;;;;;7.60;99.90;;;;;;5014409;28;20439;-70
2022/04/08 04:14:02;;;;;;;;;;;7.60;99.90;;;;;;5014225;28;19917;-69
2022/04/08 04:16:27;;;;;;;;;;;7.50;99.90;;;;;;5011929;28;19973;-70
2022/04/08 04:18:53;;;;;;;;;;;7.40;99.90;;;;;;5014205;28;19920;-70
2022/04/08 04:21:19;;;;;;;;;;;7.10;99.90;;;;;;5013973;28;20020;-70
2022/04/08 04:23:44;;;;;;;;;;;7.10;99.90;;;;;;5014658;28;19917;-70
2022/04/08 04:26:10;;;;;;;;;;;7.00;99.90;;;;;;5013821;28;19967;-70
2022/04/08 04:28:35;;;;;;;;;;;7.20;99.90;;;;;;5013861;28;19921;-70
2022/04/08 04:31:03;;;;;;;;;;;7.30;99.90;;;;;;5013705;28;19910;-68
2022/04/08 04:33:29;;;;;;;;;;;7.20;99.90;;;;;;5013716;28;20363;-69
2022/04/08 04:35:54;;;;;;;;;;;7.10;99.90;;;;;;5013973;28;19910;-69
2022/04/08 04:38:20;;;;;;;;;;;7.10;99.90;;;;;;5013981;28;19916;-69
2022/04/08 04:40:45;;;;;;;;;;;7.20;99.90;;;;;;5029530;28;19917;-69
2022/04/08 04:43:11;;;;;;;;;;;7.20;99.90;;;;;;5033418;28;19951;-69
2022/04/08 04:45:38;;;;;;;;;;;7.30;99.90;;;;;;5033524;28;19909;-69
2022/04/08 04:48:04;;;;;;;;;;;7.30;99.90;;;;;;5033387;28;19913;-69
2022/04/08 04:50:30;;;;;;;;;;;7.40;99.90;;;;;;5015610;28;20294;-69
2022/04/08 04:52:55;;;;;;;;;;;7.40;99.90;;;;;;5013691;28;19913;-69
2022/04/08 04:55:21;;;;;;;;;;;7.50;99.90;;;;;;5015424;28;19916;-69
2022/04/08 04:57:46;;;;;;;;;;;7.40;99.90;;;;;;5032548;28;19919;-70
2022/04/08 05:00:12;;;;;;;;;;;7.50;99.90;;;;;;5004256;28;19964;-68
2022/04/08 05:02:37;;;;;;;;;;;7.50;99.90;;;;;;5012777;28;19918;-68
2022/04/08 05:05:03;;;;;;;;;;;7.60;99.90;;;;;;5007537;28;19917;-69
2022/04/08 05:07:29;;;;;;;;;;;7.60;99.90;;;;;;5009079;28;20395;-69
2022/04/08 05:09:54;;;;;;;;;;;7.60;99.90;;;;;;5006965;28;19922;-68
2022/04/08 05:12:20;;;;;;;;;;;7.60;99.90;;;;;;5016415;28;19928;-69
2022/04/08 05:14:45;;;;;;;;;;;7.60;99.90;;;;;;5015934;28;19924;-69
2022/04/08 05:17:11;;;;;;;;;;;7.60;99.90;;;;;;5013340;28;19966;-68
2022/04/08 05:19:36;;;;;;;;;;;7.60;99.90;;;;;;5017231;28;20003;-69
2022/04/08 05:22:01;;;;;;;;;;;7.50;99.90;;;;;;5019043;28;19917;-69
2022/04/08 05:24:27;;;;;;;;;;;7.50;99.90;;;;;;4992087;28;20463;-69
2022/04/08 05:26:52;;;;;;;;;;;7.50;99.90;;;;;;5007828;28;20305;-69
2022/04/08 05:29:18;;;;;;;;;;;7.60;99.90;;;;;;5007858;28;19918;-69
2022/04/08 05:31:44;;;;;;;;;;;7.60;99.90;;;;;;5007889;28;19968;-70
2022/04/08 05:34:09;;;;;;;;;;;7.60;99.90;;;;;;5007966;28;20012;-69
2022/04/08 05:36:35;;;;;;;;;;;7.70;99.90;;;;;;5007439;28;19999;-69
2022/04/08 05:39:00;;;;;;;;;;;7.60;99.90;;;;;;5007770;28;19984;-70
2022/04/08 05:41:26;;;;;;;;;;;7.70;99.90;;;;;;5006180;28;19913;-68
2022/04/08 05:43:52;;;;;;;;;;;7.70;99.90;;;;;;4997943;28;20794;-70
2022/04/08 05:46:17;;;;;;;;;;;7.80;99.90;;;;;;5007425;28;20367;-70
2022/04/08 05:48:43;;;;;;;;;;;7.80;99.90;;;;;;5007328;28;19929;-69
2022/04/08 05:51:08;;;;;;;;;;;7.80;99.90;;;;;;5007063;28;19913;-69
2022/04/08 05:53:34;;;;;;;;;;;7.90;99.90;;;;;;5007428;28;19914;-68
2022/04/08 05:56:00;;;;;;;;;;;7.90;99.90;;;;;;5005118;28;20004;-68
2022/04/08 05:58:26;;;;;;;;;;;7.90;99.90;;;;;;5007006;28;19984;-68
2022/04/08 06:00:51;;;;;;;;;;;7.80;99.90;;;;;;5006646;28;19936;-69
2022/04/08 06:03:17;;;;;;;;;;;7.80;99.90;;;;;;5006319;28;19913;-68
2022/04/08 06:05:42;;;;;;;;;;;7.70;99.90;;;;;;5017865;28;19914;-68
2022/04/08 06:08:07;;;;;;;;;;;7.70;99.90;;;;;;5007037;28;19917;-68
2022/04/08 06:10:33;;;;;;;;;;;7.70;99.90;;;;;;5006839;28;19914;-68
2022/04/08 06:13:01;;;;;;;;;;;7.70;99.90;;;;;;5005445;28;19964;-68
2022/04/08 06:15:27;;;;;;;;;;;7.60;99.90;;;;;;5003061;28;20004;-68
2022/04/08 06:17:54;;;;;;;;;;;7.60;99.90;;;;;;5008196;28;19996;-68
2022/04/08 06:20:20;;;;;;;;;;;7.60;99.90;;;;;;5007685;28;20336;-69
2022/04/08 06:22:47;;;;;;;;;;;7.70;99.90;;;;;;5007923;28;19990;-67
2022/04/08 06:25:14;;;;;;;;;;;7.80;99.90;;;;;;5006563;28;19952;-68
2022/04/08 06:27:40;;;;;;;;;;;7.80;99.90;;;;;;5007583;28;19913;-69
2022/04/08 06:30:09;;;;;;;;;;;7.70;99.90;;;;;;5007184;28;19936;-69
2022/04/08 06:32:38;;;;;;;;;;;7.80;99.90;;;;;;5010239;28;19936;-68
2022/04/08 06:35:04;;;;;;;;;;;7.90;99.90;;;;;;5011095;28;19910;-69
2022/04/08 06:37:30;;;;;;;;;;;8.00;99.90;;;;;;5010788;28;19964;-68
2022/04/08 06:39:55;;;;;;;;;;;7.90;99.90;;;;;;5010536;28;20290;-67
2022/04/08 06:42:24;;;;;;;;;;;7.90;99.90;;;;;;5011158;28;20004;-68
2022/04/08 06:44:50;;;;;;;;;;;7.90;99.90;;;;;;5011284;28;19910;-69
2022/04/08 06:47:15;;;;;;;;;;;8.00;99.90;;;;;;5011037;28;20339;-68
2022/04/08 06:49:44;;;;;;;;;;;8.10;99.90;;;;;;5010416;28;19918;-69
2022/04/08 06:52:11;;;;;;;;;;;8.00;99.90;;;;;;5010978;28;20263;-69
2022/04/08 06:54:36;;;;;;;;;;;8.10;99.90;;;;;;5010702;28;20060;-69
2022/04/08 06:57:02;;;;;;;;;;;7.90;99.90;;;;;;5011258;28;19964;-68
2022/04/08 06:59:27;;;;;;;;;;;7.90;99.90;;;;;;5010768;28;19944;-68
2022/04/08 07:01:52;;;;;;;;;;;7.80;99.90;;;;;;5010874;28;19932;-69
2022/04/08 07:04:18;;;;;;;;;;;7.80;99.90;;;;;;5010628;28;19909;-69
2022/04/08 07:06:43;;;;;;;;;;;7.80;99.90;;;;;;5011845;28;19909;-68
2022/04/08 07:09:09;;;;;;;;;;;7.80;99.90;;;;;;5014120;28;20008;-69
2022/04/08 07:11:35;;;;;;;;;;;7.90;99.90;;;;;;5014644;28;19969;-69
2022/04/08 07:14:01;;;;;;;;;;;8.00;99.90;;;;;;5014539;28;19967;-69
2022/04/08 07:16:27;;;;;;;;;;;8.10;99.90;;;;;;5014684;28;19915;-70
2022/04/08 07:18:53;;;;;;;;;;;8.00;99.90;;;;;;5014183;28;19909;-69
2022/04/08 07:21:18;;;;;;;;;;;8.00;99.90;;;;;;5014427;28;19909;-69
2022/04/08 07:23:44;;;;;;;;;;;8.10;99.90;;;;;;5014636;28;20009;-70
2022/04/08 07:26:09;;;;;;;;;;;8.10;99.90;;;;;;5014515;28;19916;-69
2022/04/08 07:28:35;;;;;;;;;;;8.20;99.90;;;;;;5014294;28;19914;-69
2022/04/08 07:31:00;;;;;;;;;;;8.20;99.90;;;;;;5014047;28;19979;-69
2022/04/08 07:33:26;;;;;;;;;;;8.40;99.90;;;;;;5014082;28;20263;-70
2022/04/08 07:35:52;;;;;;;;;;;8.30;99.90;;;;;;5013586;28;19992;-69
2022/04/08 07:38:18;;;;;;;;;;;8.40;99.90;;;;;;5014169;28;19910;-68
2022/04/08 07:40:44;;;;;;;;;;;8.40;99.90;;;;;;5013595;28;19917;-69
2022/04/08 07:43:09;;;;;;;;;;;8.50;99.90;;;;;;5014118;28;20004;-69
2022/04/08 07:45:35;;;;;;;;;;;8.50;99.90;;;;;;5013933;28;19941;-69
2022/04/08 07:48:00;;;;;;;;;;;8.60;99.90;;;;;;4996090;28;19933;-69
2022/04/08 07:50:26;;;;;;;;;;;8.50;99.90;;;;;;5013432;28;19913;-69
2022/04/08 07:52:52;;;;;;;;;;;8.60;99.90;;;;;;5013945;28;20041;-69
2022/04/08 07:55:20;;;;;;;;;;;8.40;99.90;;;;;;5014029;28;19952;-69
2022/04/08 07:57:52;;;;;;;;;;;8.40;99.90;;;;;;5013929;28;20000;-69
2022/04/08 08:00:24;;;;;;;;;;;8.50;99.90;;;;;;5013430;28;20004;-68
2022/04/08 08:02:49;;;;;;;;;;;8.60;99.90;;;;;;5013811;28;19909;-68
2022/04/08 08:05:15;;;;;;;;;;;8.50;99.90;;;;;;5013715;28;19909;-70
2022/04/08 08:07:45;;;;;;;;;;;8.40;99.90;;;;;;5014061;28;19913;-69
2022/04/08 08:10:13;;;;;;;;;;;8.60;99.90;;;;;;5013244;28;19918;-70
2022/04/08 08:12:38;;;;;;;;;;;8.50;99.90;;;;;;5013565;28;19916;-69
2022/04/08 08:15:04;;;;;;;;;;;8.60;99.90;;;;;;5013388;28;19910;-69
2022/04/08 08:17:30;;;;;;;;;;;8.90;99.90;;;;;;5012876;28;19996;-69
2022/04/08 08:19:57;;;;;;;;;;;9.00;99.90;;;;;;5012952;28;19994;-70
2022/04/08 08:22:22;;;;;;;;;;;9.00;99.90;;;;;;5013485;28;19924;-69
2022/04/08 08:24:48;;;;;;;;;;;9.00;99.90;;;;;;5013426;28;19910;-69
2022/04/08 08:27:13;;;;;;;;;;;9.00;99.90;;;;;;5013299;28;19909;-69
2022/04/08 08:29:39;;;;;;;;;;;9.00;99.90;;;;;;5012774;28;19977;-70
2022/04/08 08:32:04;;;;;;;;;;;9.10;99.90;;;;;;5013487;28;19909;-69
2022/04/08 08:34:30;;;;;;;;;;;9.20;99.90;;;;;;5013737;28;19920;-70
2022/04/08 08:36:59;;;;;;;;;;;9.10;99.90;;;;;;5012756;28;19960;-70
2022/04/08 08:39:25;;;;;;;;;;;9.30;99.90;;;;;;5012926;28;20102;-69
2022/04/08 08:41:51;;;;;;;;;;;9.50;99.90;;;;;;5014298;28;20361;-69
2022/04/08 08:44:19;;;;;;;;;;;9.50;99.90;;;;;;4996118;28;20020;-69
2022/04/08 08:46:44;;;;;;;;;;;9.50;99.90;;;;;;5013182;28;19910;-70
2022/04/08 08:49:11;;;;;;;;;;;9.30;99.90;;;;;;5012935;28;20272;-68
2022/04/08 08:51:39;;;;;;;;;;;9.30;99.90;;;;;;5012905;28;20343;-70
2022/04/08 08:54:04;;;;;;;;;;;9.40;99.90;;;;;;5012823;28;19917;-70
2022/04/08 08:56:30;;;;;;;;;;;9.50;99.90;;;;;;5013030;28;19913;-70
2022/04/08 08:58:55;;;;;;;;;;;9.60;99.90;;;;;;5012687;28;20367;-70
2022/04/08 09:01:21;;;;;;;;;;;9.70;99.80;;;;;;5012764;28;19910;-70
2022/04/08 09:03:46;;;;;;;;;;;9.70;99.80;;;;;;5013015;28;19913;-70
2022/04/08 09:06:11;;;;;;;;;;;9.80;99.10;;;;;;5012760;28;20304;-69
2022/04/08 09:08:38;;;;;;;;;;;10.00;98.20;;;;;;5012330;28;19917;-69
2022/04/08 09:11:04;;;;;;;;;;;10.10;98.10;;;;;;5012744;28;19916;-69
2022/04/08 09:13:29;;;;;;;;;;;10.20;97.90;;;;;;5012858;28;19910;-68
2022/04/08 09:15:59;;;;;;;;;;;10.30;97.20;;;;;;5012814;28;19956;-69
2022/04/08 09:18:32;;;;;;;;;;;10.30;97.00;;;;;;5012472;28;19956;-70
2022/04/08 09:21:01;;;;;;;;;;;10.30;96.10;;;;;;4994566;28;19916;-69
2022/04/08 09:23:28;;;;;;;;;;;10.00;96.20;;;;;;5012239;28;19913;-69
2022/04/08 09:26:04;;;;;;;;;;;9.90;96.90;;;;;;5012550;28;19971;-69
2022/04/08 09:28:36;;;;;;;;;;;9.90;97.20;;;;;;5012128;28;19914;-69
2022/04/08 09:31:02;;;;;;;;;;;10.00;96.60;;;;;;5011529;28;19913;-68
2022/04/08 09:33:28;;;;;;;;;;;10.30;96.60;;;;;;4994446;28;20454;-68
2022/04/08 09:35:54;;;;;;;;;;;10.50;95.70;;;;;;5011354;28;19956;-69
2022/04/08 09:38:21;;;;;;;;;;;10.50;94.60;;;;;;5011943;28;19928;-69
2022/04/08 09:40:49;;;;;;;;;;;10.10;93.30;;;;;;5011716;28;19913;-69
2022/04/08 09:43:15;;;;;;;;;;;9.60;95.20;;;;;;5011769;28;19917;-68
2022/04/08 09:45:40;;;;;;;;;;;9.50;95.70;;;;;;5012097;28;19917;-68
2022/04/08 09:48:07;;;;;;;;;;;9.50;96.40;;;;;;5011623;28;19948;-71
2022/04/08 09:50:33;;;;;;;;;;;9.40;96.40;;;;;;5011198;28;19917;-68
2022/04/08 09:52:59;;;;;;;;;;;9.60;95.90;;;;;;5011990;28;19959;-67
2022/04/08 09:55:25;;;;;;;;;;;9.80;95.90;;;;;;5011571;28;19913;-67
2022/04/08 09:57:55;;;;;;;;;;;10.00;94.90;;;;;;5011894;28;20004;-67
2022/04/08 10:00:21;;;;;;;;;;;10.00;95.00;;;;;;5011259;28;19913;-68
2022/04/08 10:02:48;;;;;;;;;;;10.00;95.10;;;;;;5011551;28;19921;-68
2022/04/08 10:05:13;;;;;;;;;;;10.10;95.20;;;;;;5011462;28;19916;-67
2022/04/08 10:07:40;;;;;;;;;;;10.20;95.20;;;;;;5011612;28;19910;-70
2022/04/08 10:10:21;;;;;;;;;;;10.30;95.50;;;;;;4993019;28;19913;-68
2022/04/08 10:12:47;;;;;;;;;;;10.10;95.60;;;;;;4993414;28;19928;-69
2022/04/08 10:15:21;;;;;;;;;;;10.20;95.60;;;;;;5011219;28;19909;-70
2022/04/08 10:18:00;;;;;;;;;;;10.30;95.30;;;;;;5011633;28;19916;-69
2022/04/08 10:20:27;;;;;;;;;;;10.40;95.00;;;;;;5011337;28;20294;-69
2022/04/08 10:23:03;;;;;;;;;;;10.40;95.00;;;;;;5011302;28;19920;-69
2022/04/08 10:25:35;;;;;;;;;;;10.50;95.00;;;;;;5011168;28;19917;-69
2022/04/08 10:28:00;;;;;;;;;;;10.60;95.50;;;;;;5011400;28;19913;-69
2022/04/08 10:30:26;;;;;;;;;;;10.60;95.10;;;;;;5010927;28;19909;-70
2022/04/08 10:32:58;;;;;;;;;;;10.70;94.80;;;;;;5003139;28;19918;-68
2022/04/08 10:35:24;;;;;;;;;;;10.80;94.70;;;;;;5009874;28;19914;-69
2022/04/08 10:37:56;;;;;;;;;;;10.80;93.90;;;;;;5010422;28;19924;-69
2022/04/08 10:40:27;;;;;;;;;;;10.50;93.00;;;;;;5011340;28;19963;-69
2022/04/08 10:42:57;;;;;;;;;;;10.30;93.30;;;;;;5013970;28;20292;-70
2022/04/08 10:45:22;;;;;;;;;;;10.50;93.40;;;;;;5015162;28;20292;-68
2022/04/08 10:47:48;;;;;;;;;;;10.40;93.30;;;;;;5013766;28;19913;-69
2022/04/08 10:50:23;;;;;;;;;;;10.50;93.60;;;;;;5014642;28;20333;-69
2022/04/08 10:52:48;;;;;;;;;;;10.50;93.60;;;;;;5014485;28;19916;-69
2022/04/08 10:55:13;;;;;;;;;;;10.50;93.60;;;;;;5015385;28;19909;-69
2022/04/08 10:57:40;;;;;;;;;;;10.60;93.70;;;;;;5014792;28;20408;-70
2022/04/08 11:00:07;;;;;;;;;;;10.50;93.90;;;;;;5014384;28;19909;-69
2022/04/08 11:02:39;;;;;;;;;;;10.40;93.70;;;;;;4996554;28;19916;-68
2022/04/08 11:05:06;;;;;;;;;;;10.40;93.10;;;;;;5033444;28;19932;-67
2022/04/08 11:07:32;;;;;;;;;;;10.30;92.80;;;;;;5034732;28;20672;-68
2022/04/08 11:09:58;;;;;;;;;;;10.30;93.10;;;;;;5033837;28;19953;-67
2022/04/08 11:12:25;;;;;;;;;;;10.10;92.60;;;;;;5034298;28;19915;-68
2022/04/08 11:14:54;;;;;;;;;;;9.90;93.60;;;;;;5034412;28;20007;-68
2022/04/08 11:17:22;;;;;;;;;;;9.70;94.40;;;;;;5035014;28;20593;-70
2022/04/08 11:19:50;;;;;;;;;;;9.60;94.30;;;;;;5033756;28;19924;-69
2022/04/08 11:22:16;;;;;;;;;;;9.60;93.40;;;;;;5034675;28;19932;-68
2022/04/08 11:24:42;;;;;;;;;;;9.60;92.80;;;;;;5034565;28;20000;-68
2022/04/08 11:27:09;;;;;;;;;;;9.70;92.70;;;;;;5033943;28;19983;-69
2022/04/08 11:29:36;;;;;;;;;;;9.70;92.80;;;;;;5033602;28;19913;-69
2022/04/08 11:32:09;;;;;;;;;;;9.60;93.00;;;;;;5034763;28;19952;-69
2022/04/08 11:34:34;;;;;;;;;;;9.70;93.20;;;;;;5034541;28;19917;-69
2022/04/08 11:37:00;;;;;;;;;;;9.60;94.10;;;;;;5033895;28;20382;-70
2022/04/08 11:39:30;;;;;;;;;;;9.60;94.40;;;;;;5034913;28;19917;-70
2022/04/08 11:41:57;;;;;;;;;;;9.80;94.60;;;;;;5034653;28;20299;-70
2022/04/08 11:44:23;;;;;;;;;;;10.00;93.90;;;;;;5034183;28;19913;-69
2022/04/08 11:46:49;;;;;;;;;;;10.10;93.40;;;;;;5016156;28;19916;-69
2022/04/08 11:49:14;;;;;;;;;;;10.00;93.40;;;;;;5033948;28;19974;-69
2022/04/08 11:51:40;;;;;;;;;;;10.20;93.30;;;;;;5017825;28;19940;-70
2022/04/08 11:54:05;;;;;;;;;;;10.40;92.90;;;;;;5014356;28;20363;-69
2022/04/08 11:56:31;;;;;;;;;;;10.50;92.30;;;;;;5015085;28;20389;-68
2022/04/08 11:58:57;;;;;;;;;;;10.50;92.60;;;;;;4997189;28;20004;-68
2022/04/08 12:01:23;;;;;;;;;;;10.60;92.50;;;;;;5013848;28;19913;-69
2022/04/08 12:03:50;;;;;;;;;;;10.50;92.60;;;;;;5014966;28;19909;-68
2022/04/08 12:06:15;;;;;;;;;;;10.60;92.60;;;;;;5015472;28;20390;-68
2022/04/08 12:08:40;;;;;;;;;;;10.60;92.80;;;;;;5014735;28;19944;-69
2022/04/08 12:11:09;;;;;;;;;;;10.50;93.00;;;;;;5013942;28;20385;-68
2022/04/08 12:13:36;;;;;;;;;;;10.60;93.00;;;;;;5013966;28;20004;-69
2022/04/08 12:16:08;;;;;;;;;;;10.70;92.90;;;;;;5013879;28;19910;-68
2022/04/08 12:18:33;;;;;;;;;;;10.80;93.00;;;;;;5013914;28;19910;-69
2022/04/08 12:21:03;;;;;;;;;;;10.90;92.90;;;;;;5013646;28;19967;-68
2022/04/08 12:23:28;;;;;;;;;;;11.00;92.90;;;;;;5013249;28;19910;-68
2022/04/08 12:25:55;;;;;;;;;;;10.90;93.10;;;;;;5013632;28;19909;-68
2022/04/08 12:28:24;;;;;;;;;;;10.80;92.20;;;;;;5013553;28;19925;-68
2022/04/08 12:30:50;;;;;;;;;;;10.90;92.80;;;;;;5013255;28;19967;-68
2022/04/08 12:33:17;;;;;;;;;;;11.00;92.50;;;;;;5013310;28;20008;-70
2022/04/08 12:35:43;;;;;;;;;;;11.20;92.30;;;;;;5012871;28;20631;-69
2022/04/08 12:38:08;;;;;;;;;;;11.10;91.90;;;;;;5013294;28;19996;-69
2022/04/08 12:40:34;;;;;;;;;;;11.00;92.50;;;;;;5012478;28;19918;-69
2022/04/08 12:43:01;;;;;;;;;;;11.10;92.30;;;;;;5013209;28;19961;-69
2022/04/08 12:45:27;;;;;;;;;;;10.90;91.50;;;;;;5013112;28;19956;-70
2022/04/08 12:47:52;;;;;;;;;;;10.80;91.30;;;;;;5013017;28;20012;-70
2022/04/08 12:50:18;;;;;;;;;;;11.00;91.30;;;;;;5012786;28;20004;-70
2022/04/08 12:52:43;;;;;;;;;;;11.10;91.10;;;;;;5012916;28;19917;-70
2022/04/08 12:55:09;;;;;;;;;;;11.00;90.80;;;;;;5013088;28;20330;-70
2022/04/08 12:57:34;;;;;;;;;;;10.60;91.00;;;;;;5012939;28;19909;-70
2022/04/08 13:00:00;;;;;;;;;;;10.40;91.30;;;;;;5012603;28;19940;-70
2022/04/08 13:02:27;;;;;;;;;;;10.40;91.90;;;;;;5012766;28;19909;-70
2022/04/08 13:04:52;;;;;;;;;;;10.50;92.10;;;;;;4995086;28;19913;-70
2022/04/08 13:07:18;;;;;;;;;;;10.60;91.60;;;;;;5012923;28;20389;-70
2022/04/08 13:09:43;;;;;;;;;;;10.60;91.40;;;;;;5012315;28;20004;-70
2022/04/08 13:12:10;;;;;;;;;;;10.70;91.60;;;;;;5012403;28;19928;-70
2022/04/08 13:14:36;;;;;;;;;;;10.70;91.30;;;;;;5012588;28;20000;-70
2022/04/08 13:17:02;;;;;;;;;;;10.60;91.30;;;;;;5012660;28;20389;-69
2022/04/08 13:19:27;;;;;;;;;;;10.70;91.20;;;;;;5012134;28;19921;-69
2022/04/08 13:21:52;;;;;;;;;;;10.80;90.90;;;;;;5012479;28;19991;-70
2022/04/08 13:24:19;;;;;;;;;;;10.80;90.60;;;;;;5012699;28;19961;-70
2022/04/08 13:26:45;;;;;;;;;;;10.90;90.60;;;;;;5012469;28;19910;-70
2022/04/08 13:29:10;;;;;;;;;;;10.70;90.40;;;;;;5012203;28;19937;-70
2022/04/08 13:31:37;;;;;;;;;;;10.60;90.30;;;;;;5011473;28;20003;-69
2022/04/08 13:34:03;;;;;;;;;;;10.40;90.10;;;;;;4996153;28;19987;-71
2022/04/08 13:36:29;;;;;;;;;;;10.10;90.50;;;;;;5006935;28;19913;-68
2022/04/08 13:38:54;;;;;;;;;;;9.90;91.00;;;;;;5006285;28;20398;-70
2022/04/08 13:41:20;;;;;;;;;;;9.70;91.00;;;;;;5008656;28;19953;-70
2022/04/08 13:43:45;;;;;;;;;;;9.50;90.40;;;;;;5007927;28;20011;-70
2022/04/08 13:46:11;;;;;;;;;;;9.50;90.50;;;;;;5007821;28;19929;-69
2022/04/08 13:48:36;;;;;;;;;;;9.60;91.20;;;;;;5007431;28;19913;-68
2022/04/08 13:51:02;;;;;;;;;;;9.70;90.40;;;;;;5007629;28;19914;-69
2022/04/08 13:53:27;;;;;;;;;;;9.50;89.10;;;;;;5007801;28;19914;-68
2022/04/08 13:55:53;;;;;;;;;;;9.50;90.00;;;;;;5007746;28;19913;-68
2022/04/08 13:58:18;;;;;;;;;;;9.40;89.40;;;;;;5007803;28;19989;-67
2022/04/08 14:00:44;;;;;;;;;;;9.60;90.20;;;;;;5007785;28;19914;-69
2022/04/08 14:03:10;;;;;;;;;;;9.70;90.00;;;;;;5014558;28;19920;-69
2022/04/08 14:05:35;;;;;;;;;;;9.90;90.20;;;;;;5022278;28;19913;-69
2022/04/08 14:08:01;;;;;;;;;;;10.10;88.10;;;;;;5007860;28;19921;-69
2022/04/08 14:10:27;;;;;;;;;;;10.20;86.90;;;;;;5006859;28;19921;-69
2022/04/08 14:12:52;;;;;;;;;;;10.30;86.60;;;;;;5008042;28;19913;-69
2022/04/08 14:15:18;;;;;;;;;;;10.40;85.40;;;;;;5007065;28;19913;-69
2022/04/08 14:17:44;;;;;;;;;;;10.30;85.80;;;;;;5007462;28;19914;-69
2022/04/08 14:20:10;;;;;;;;;;;10.50;83.00;;;;;;5007718;28;19939;-69